sensor_id;sensor_type;location;lat;lon;timestamp;P1;durP1;ratioP1;P2;durP2;ratioP2
47737;SDS011;33502;47.182;27.506;2022-12-05T00:01:11;6.32;;;4.75;;
47737;SDS011;33502;47.182;27.506;2022-12-05T00:03:59;6.88;;;4.68;;
47737;SDS011;33502;47.182;27.506;2022-12-05T00:06:28;6.38;;;4.88;;
47737;SDS011;33502;47.182;27.506;2022-12-05T00:08:55;6.40;;;4.70;;
47737;SDS011;33502;47.182;27.506;2022-12-05T00:11:23;7.32;;;4.97;;
47737;SDS011;33502;47.182;27.506;2022-12-05T00:13:51;8.60;;;5.28;;
47737;SDS011;33502;47.182;27.506;2022-12-05T00:16:19;8.80;;;4.97;;
47737;SDS011;33502;47.182;27.506;2022-12-05T00:18:46;10.38;;;5.15;;
47737;SDS011;33502;47.182;27.506;2022-12-05T00:21:13;9.05;;;5.55;;
47737;SDS011;33502;47.182;27.506;2022-12-05T00:23:41;10.65;;;5.63;;
47737;SDS011;33502;47.182;27.506;2022-12-05T00:26:07;8.77;;;5.80;;
47737;SDS011;33502;47.182;27.506;2022-12-05T00:28:33;7.22;;;4.45;;
47737;SDS011;33502;47.182;27.506;2022-12-05T00:31:03;6.93;;;4.70;;
47737;SDS011;33502;47.182;27.506;2022-12-05T00:33:31;8.50;;;4.72;;
47737;SDS011;33502;47.182;27.506;2022-12-05T00:36:05;8.43;;;5.05;;
47737;SDS011;33502;47.182;27.506;2022-12-05T00:38:33;7.65;;;5.28;;
47737;SDS011;33502;47.182;27.506;2022-12-05T00:41:03;8.85;;;5.40;;
47737;SDS011;33502;47.182;27.506;2022-12-05T00:43:30;8.55;;;4.93;;
47737;SDS011;33502;47.182;27.506;2022-12-05T00:46:03;8.57;;;5.75;;
47737;SDS011;33502;47.182;27.506;2022-12-05T00:48:31;8.10;;;5.45;;
47737;SDS011;33502;47.182;27.506;2022-12-05T00:50:59;6.57;;;5.40;;
47737;SDS011;33502;47.182;27.506;2022-12-05T00:53:28;7.65;;;5.50;;
47737;SDS011;33502;47.182;27.506;2022-12-05T00:55:54;8.48;;;5.53;;
47737;SDS011;33502;47.182;27.506;2022-12-05T00:58:20;7.50;;;5.07;;
47737;SDS011;33502;47.182;27.506;2022-12-05T01:00:46;9.07;;;5.18;;
47737;SDS011;33502;47.182;27.506;2022-12-05T01:03:12;7.65;;;5.50;;
47737;SDS011;33502;47.182;27.506;2022-12-05T01:05:38;6.93;;;4.53;;
47737;SDS011;33502;47.182;27.506;2022-12-05T01:08:04;6.05;;;4.55;;
47737;SDS011;33502;47.182;27.506;2022-12-05T01:10:29;6.97;;;4.78;;
47737;SDS011;33502;47.182;27.506;2022-12-05T01:12:55;8.00;;;4.78;;
47737;SDS011;33502;47.182;27.506;2022-12-05T01:15:21;7.32;;;4.88;;
47737;SDS011;33502;47.182;27.506;2022-12-05T01:17:47;6.38;;;4.45;;
47737;SDS011;33502;47.182;27.506;2022-12-05T01:20:12;9.00;;;5.25;;
47737;SDS011;33502;47.182;27.506;2022-12-05T01:22:38;6.40;;;4.65;;
47737;SDS011;33502;47.182;27.506;2022-12-05T01:25:04;6.40;;;4.30;;
47737;SDS011;33502;47.182;27.506;2022-12-05T01:27:30;7.30;;;4.72;;
47737;SDS011;33502;47.182;27.506;2022-12-05T01:29:56;9.02;;;5.68;;
47737;SDS011;33502;47.182;27.506;2022-12-05T01:32:22;7.55;;;5.05;;
47737;SDS011;33502;47.182;27.506;2022-12-05T01:34:48;7.47;;;5.35;;
47737;SDS011;33502;47.182;27.506;2022-12-05T01:37:13;8.45;;;5.20;;
47737;SDS011;33502;47.182;27.506;2022-12-05T01:39:39;7.57;;;5.30;;
47737;SDS011;33502;47.182;27.506;2022-12-05T01:42:05;7.07;;;4.85;;
47737;SDS011;33502;47.182;27.506;2022-12-05T01:46:56;7.65;;;4.90;;
47737;SDS011;33502;47.182;27.506;2022-12-05T01:49:24;7.82;;;5.10;;
47737;SDS011;33502;47.182;27.506;2022-12-05T01:52:00;6.00;;;4.68;;
47737;SDS011;33502;47.182;27.506;2022-12-05T01:54:38;7.15;;;4.97;;
47737;SDS011;33502;47.182;27.506;2022-12-05T01:57:05;9.13;;;5.22;;
47737;SDS011;33502;47.182;27.506;2022-12-05T01:59:37;9.02;;;5.55;;
47737;SDS011;33502;47.182;27.506;2022-12-05T02:02:05;8.48;;;5.38;;
47737;SDS011;33502;47.182;27.506;2022-12-05T02:04:34;8.52;;;6.05;;
47737;SDS011;33502;47.182;27.506;2022-12-05T02:07:04;8.40;;;6.00;;
47737;SDS011;33502;47.182;27.506;2022-12-05T02:09:30;9.35;;;5.53;;
47737;SDS011;33502;47.182;27.506;2022-12-05T02:11:57;8.52;;;6.55;;
47737;SDS011;33502;47.182;27.506;2022-12-05T02:30:56;7.72;;;6.32;;
47737;SDS011;33502;47.182;27.506;2022-12-05T02:33:51;8.30;;;5.97;;
47737;SDS011;33502;47.182;27.506;2022-12-05T02:36:27;9.70;;;5.88;;
47737;SDS011;33502;47.182;27.506;2022-12-05T02:38:58;9.35;;;6.28;;
47737;SDS011;33502;47.182;27.506;2022-12-05T02:41:36;9.48;;;6.22;;
47737;SDS011;33502;47.182;27.506;2022-12-05T02:44:22;8.85;;;6.15;;
47737;SDS011;33502;47.182;27.506;2022-12-05T02:47:00;10.18;;;7.13;;
47737;SDS011;33502;47.182;27.506;2022-12-05T02:49:29;10.75;;;7.13;;
47737;SDS011;33502;47.182;27.506;2022-12-05T02:51:59;11.57;;;7.38;;
47737;SDS011;33502;47.182;27.506;2022-12-05T02:54:30;10.32;;;7.13;;
47737;SDS011;33502;47.182;27.506;2022-12-05T02:57:00;14.85;;;7.90;;
47737;SDS011;33502;47.182;27.506;2022-12-05T02:59:27;13.60;;;7.40;;
47737;SDS011;33502;47.182;27.506;2022-12-05T03:01:53;13.60;;;7.70;;
47737;SDS011;33502;47.182;27.506;2022-12-05T03:04:21;15.05;;;8.70;;
47737;SDS011;33502;47.182;27.506;2022-12-05T03:09:24;12.27;;;7.78;;
47737;SDS011;33502;47.182;27.506;2022-12-05T03:15:24;14.57;;;8.57;;
47737;SDS011;33502;47.182;27.506;2022-12-05T03:17:48;12.65;;;7.85;;
47737;SDS011;33502;47.182;27.506;2022-12-05T03:25:49;13.27;;;7.97;;
47737;SDS011;33502;47.182;27.506;2022-12-05T03:29:00;16.67;;;8.70;;
47737;SDS011;33502;47.182;27.506;2022-12-05T03:43:32;12.27;;;7.72;;
47737;SDS011;33502;47.182;27.506;2022-12-05T03:46:10;14.68;;;9.02;;
47737;SDS011;33502;47.182;27.506;2022-12-05T03:48:52;13.60;;;8.90;;
47737;SDS011;33502;47.182;27.506;2022-12-05T03:51:28;14.18;;;9.13;;
47737;SDS011;33502;47.182;27.506;2022-12-05T03:54:07;16.73;;;9.25;;
47737;SDS011;33502;47.182;27.506;2022-12-05T03:56:46;15.77;;;8.50;;
47737;SDS011;33502;47.182;27.506;2022-12-05T03:59:32;13.88;;;8.73;;
47737;SDS011;33502;47.182;27.506;2022-12-05T04:02:04;14.02;;;8.00;;
47737;SDS011;33502;47.182;27.506;2022-12-05T04:04:41;13.85;;;7.97;;
47737;SDS011;33502;47.182;27.506;2022-12-05T04:07:14;14.52;;;8.27;;
47737;SDS011;33502;47.182;27.506;2022-12-05T04:09:43;15.35;;;8.48;;
47737;SDS011;33502;47.182;27.506;2022-12-05T04:12:16;16.17;;;9.15;;
47737;SDS011;33502;47.182;27.506;2022-12-05T04:14:47;16.63;;;9.30;;
47737;SDS011;33502;47.182;27.506;2022-12-05T04:19:52;14.70;;;8.93;;
47737;SDS011;33502;47.182;27.506;2022-12-05T04:22:41;16.02;;;8.68;;
47737;SDS011;33502;47.182;27.506;2022-12-05T04:25:08;18.02;;;10.75;;
47737;SDS011;33502;47.182;27.506;2022-12-05T04:30:47;15.07;;;8.23;;
47737;SDS011;33502;47.182;27.506;2022-12-05T04:33:15;14.73;;;8.20;;
47737;SDS011;33502;47.182;27.506;2022-12-05T04:35:54;14.05;;;8.40;;
47737;SDS011;33502;47.182;27.506;2022-12-05T04:41:10;17.42;;;8.85;;
47737;SDS011;33502;47.182;27.506;2022-12-05T04:43:41;14.57;;;8.07;;
47737;SDS011;33502;47.182;27.506;2022-12-05T04:46:10;15.07;;;7.97;;
47737;SDS011;33502;47.182;27.506;2022-12-05T04:48:39;17.92;;;8.90;;
47737;SDS011;33502;47.182;27.506;2022-12-05T04:51:08;13.30;;;7.38;;
47737;SDS011;33502;47.182;27.506;2022-12-05T04:53:41;18.70;;;9.60;;
47737;SDS011;33502;47.182;27.506;2022-12-05T04:56:08;16.25;;;9.00;;
47737;SDS011;33502;47.182;27.506;2022-12-05T04:58:37;15.70;;;9.43;;
47737;SDS011;33502;47.182;27.506;2022-12-05T05:01:22;16.00;;;9.52;;
47737;SDS011;33502;47.182;27.506;2022-12-05T05:04:02;16.88;;;9.55;;
47737;SDS011;33502;47.182;27.506;2022-12-05T05:06:36;21.10;;;9.93;;
47737;SDS011;33502;47.182;27.506;2022-12-05T05:09:05;16.50;;;9.57;;
47737;SDS011;33502;47.182;27.506;2022-12-05T05:11:32;14.27;;;8.15;;
47737;SDS011;33502;47.182;27.506;2022-12-05T05:13:59;15.63;;;7.82;;
47737;SDS011;33502;47.182;27.506;2022-12-05T05:16:26;13.55;;;8.63;;
47737;SDS011;33502;47.182;27.506;2022-12-05T05:19:03;19.45;;;8.57;;
47737;SDS011;33502;47.182;27.506;2022-12-05T05:21:31;16.25;;;10.30;;
47737;SDS011;33502;47.182;27.506;2022-12-05T05:23:59;14.85;;;9.13;;
47737;SDS011;33502;47.182;27.506;2022-12-05T05:26:25;18.25;;;10.13;;
47737;SDS011;33502;47.182;27.506;2022-12-05T05:28:52;17.13;;;9.77;;
47737;SDS011;33502;47.182;27.506;2022-12-05T05:31:19;16.50;;;8.32;;
47737;SDS011;33502;47.182;27.506;2022-12-05T05:33:52;16.90;;;11.07;;
47737;SDS011;33502;47.182;27.506;2022-12-05T05:36:19;16.23;;;9.27;;
47737;SDS011;33502;47.182;27.506;2022-12-05T05:38:48;17.25;;;10.25;;
47737;SDS011;33502;47.182;27.506;2022-12-05T05:41:16;20.60;;;11.20;;
47737;SDS011;33502;47.182;27.506;2022-12-05T05:43:43;15.35;;;9.30;;
47737;SDS011;33502;47.182;27.506;2022-12-05T05:46:10;15.65;;;9.30;;
47737;SDS011;33502;47.182;27.506;2022-12-05T05:48:37;16.15;;;9.93;;
47737;SDS011;33502;47.182;27.506;2022-12-05T05:51:04;19.83;;;10.45;;
47737;SDS011;33502;47.182;27.506;2022-12-05T05:53:32;14.98;;;9.73;;
47737;SDS011;33502;47.182;27.506;2022-12-05T05:56:02;15.93;;;10.68;;
47737;SDS011;33502;47.182;27.506;2022-12-05T05:58:32;18.95;;;11.27;;
47737;SDS011;33502;47.182;27.506;2022-12-05T06:01:05;20.80;;;10.80;;
47737;SDS011;33502;47.182;27.506;2022-12-05T06:03:33;14.52;;;9.82;;
47737;SDS011;33502;47.182;27.506;2022-12-05T06:06:00;20.58;;;10.88;;
47737;SDS011;33502;47.182;27.506;2022-12-05T06:08:29;15.77;;;9.63;;
47737;SDS011;33502;47.182;27.506;2022-12-05T06:10:55;21.08;;;11.30;;
47737;SDS011;33502;47.182;27.506;2022-12-05T06:13:21;19.70;;;11.48;;
47737;SDS011;33502;47.182;27.506;2022-12-05T06:15:47;20.08;;;11.40;;
47737;SDS011;33502;47.182;27.506;2022-12-05T06:18:13;22.27;;;12.45;;
47737;SDS011;33502;47.182;27.506;2022-12-05T06:20:38;16.98;;;10.27;;
47737;SDS011;33502;47.182;27.506;2022-12-05T06:23:04;22.30;;;11.32;;
47737;SDS011;33502;47.182;27.506;2022-12-05T06:25:30;21.52;;;11.38;;
47737;SDS011;33502;47.182;27.506;2022-12-05T06:27:56;20.35;;;10.70;;
47737;SDS011;33502;47.182;27.506;2022-12-05T06:30:22;28.95;;;12.85;;
47737;SDS011;33502;47.182;27.506;2022-12-05T06:32:47;22.10;;;12.20;;
47737;SDS011;33502;47.182;27.506;2022-12-05T06:35:13;24.85;;;11.07;;
47737;SDS011;33502;47.182;27.506;2022-12-05T06:37:40;19.90;;;11.77;;
47737;SDS011;33502;47.182;27.506;2022-12-05T06:40:12;20.80;;;12.10;;
47737;SDS011;33502;47.182;27.506;2022-12-05T06:42:39;18.85;;;10.77;;
47737;SDS011;33502;47.182;27.506;2022-12-05T06:45:05;25.80;;;12.13;;
47737;SDS011;33502;47.182;27.506;2022-12-05T06:47:31;17.98;;;11.50;;
47737;SDS011;33502;47.182;27.506;2022-12-05T06:49:58;18.92;;;11.05;;
47737;SDS011;33502;47.182;27.506;2022-12-05T06:52:23;21.40;;;12.50;;
47737;SDS011;33502;47.182;27.506;2022-12-05T06:54:49;20.13;;;11.93;;
47737;SDS011;33502;47.182;27.506;2022-12-05T06:57:15;18.92;;;10.88;;
47737;SDS011;33502;47.182;27.506;2022-12-05T06:59:41;17.40;;;10.48;;
47737;SDS011;33502;47.182;27.506;2022-12-05T07:02:07;19.17;;;9.80;;
47737;SDS011;33502;47.182;27.506;2022-12-05T07:04:34;16.42;;;9.85;;
47737;SDS011;33502;47.182;27.506;2022-12-05T07:07:00;15.65;;;11.00;;
47737;SDS011;33502;47.182;27.506;2022-12-05T07:09:26;15.88;;;10.80;;
47737;SDS011;33502;47.182;27.506;2022-12-05T07:12:13;20.17;;;12.27;;
47737;SDS011;33502;47.182;27.506;2022-12-05T07:14:41;20.48;;;10.75;;
47737;SDS011;33502;47.182;27.506;2022-12-05T07:17:08;17.23;;;10.57;;
47737;SDS011;33502;47.182;27.506;2022-12-05T07:19:34;16.20;;;9.60;;
47737;SDS011;33502;47.182;27.506;2022-12-05T07:22:00;22.27;;;9.95;;
47737;SDS011;33502;47.182;27.506;2022-12-05T07:24:26;16.73;;;9.57;;
47737;SDS011;33502;47.182;27.506;2022-12-05T07:26:52;19.38;;;9.77;;
47737;SDS011;33502;47.182;27.506;2022-12-05T07:29:18;16.05;;;9.40;;
47737;SDS011;33502;47.182;27.506;2022-12-05T07:31:44;19.40;;;10.20;;
47737;SDS011;33502;47.182;27.506;2022-12-05T07:34:10;16.67;;;9.70;;
47737;SDS011;33502;47.182;27.506;2022-12-05T07:36:36;15.80;;;8.93;;
47737;SDS011;33502;47.182;27.506;2022-12-05T07:39:02;18.00;;;10.00;;
47737;SDS011;33502;47.182;27.506;2022-12-05T07:41:29;17.75;;;9.57;;
47737;SDS011;33502;47.182;27.506;2022-12-05T07:43:57;12.63;;;8.95;;
47737;SDS011;33502;47.182;27.506;2022-12-05T07:46:24;16.35;;;8.82;;
47737;SDS011;33502;47.182;27.506;2022-12-05T07:48:53;14.10;;;9.82;;
47737;SDS011;33502;47.182;27.506;2022-12-05T07:51:19;13.02;;;8.10;;
47737;SDS011;33502;47.182;27.506;2022-12-05T07:53:46;15.00;;;8.40;;
47737;SDS011;33502;47.182;27.506;2022-12-05T07:56:13;13.10;;;9.65;;
47737;SDS011;33502;47.182;27.506;2022-12-05T07:58:41;13.20;;;8.27;;
47737;SDS011;33502;47.182;27.506;2022-12-05T08:01:13;18.00;;;9.23;;
47737;SDS011;33502;47.182;27.506;2022-12-05T08:03:39;17.23;;;9.05;;
47737;SDS011;33502;47.182;27.506;2022-12-05T08:06:07;13.70;;;9.60;;
47737;SDS011;33502;47.182;27.506;2022-12-05T08:08:34;15.68;;;9.55;;
47737;SDS011;33502;47.182;27.506;2022-12-05T08:11:04;12.35;;;9.02;;
47737;SDS011;33502;47.182;27.506;2022-12-05T08:13:32;15.20;;;9.17;;
47737;SDS011;33502;47.182;27.506;2022-12-05T08:16:31;13.13;;;9.02;;
47737;SDS011;33502;47.182;27.506;2022-12-05T08:18:59;18.08;;;9.63;;
47737;SDS011;33502;47.182;27.506;2022-12-05T08:21:26;16.50;;;9.27;;
47737;SDS011;33502;47.182;27.506;2022-12-05T08:23:52;13.63;;;9.30;;
47737;SDS011;33502;47.182;27.506;2022-12-05T08:26:28;14.68;;;8.35;;
47737;SDS011;33502;47.182;27.506;2022-12-05T08:28:56;14.23;;;8.73;;
47737;SDS011;33502;47.182;27.506;2022-12-05T08:31:27;12.07;;;8.00;;
47737;SDS011;33502;47.182;27.506;2022-12-05T08:33:55;14.65;;;8.23;;
47737;SDS011;33502;47.182;27.506;2022-12-05T08:36:22;14.95;;;9.30;;
47737;SDS011;33502;47.182;27.506;2022-12-05T08:38:54;13.52;;;8.70;;
47737;SDS011;33502;47.182;27.506;2022-12-05T08:41:20;16.00;;;9.25;;
47737;SDS011;33502;47.182;27.506;2022-12-05T08:43:47;12.65;;;7.22;;
47737;SDS011;33502;47.182;27.506;2022-12-05T08:46:12;11.55;;;7.60;;
47737;SDS011;33502;47.182;27.506;2022-12-05T08:48:38;12.60;;;8.10;;
47737;SDS011;33502;47.182;27.506;2022-12-05T08:51:05;12.00;;;7.53;;
47737;SDS011;33502;47.182;27.506;2022-12-05T08:53:32;10.68;;;7.03;;
47737;SDS011;33502;47.182;27.506;2022-12-05T08:56:01;12.52;;;6.10;;
47737;SDS011;33502;47.182;27.506;2022-12-05T08:58:28;12.52;;;7.35;;
47737;SDS011;33502;47.182;27.506;2022-12-05T09:01:02;10.40;;;6.95;;
47737;SDS011;33502;47.182;27.506;2022-12-05T09:03:32;15.43;;;7.30;;
47737;SDS011;33502;47.182;27.506;2022-12-05T09:06:14;11.70;;;6.93;;
47737;SDS011;33502;47.182;27.506;2022-12-05T09:08:41;10.38;;;6.88;;
47737;SDS011;33502;47.182;27.506;2022-12-05T09:11:13;10.82;;;6.82;;
47737;SDS011;33502;47.182;27.506;2022-12-05T09:13:41;13.75;;;7.28;;
47737;SDS011;33502;47.182;27.506;2022-12-05T09:16:17;11.07;;;7.50;;
47737;SDS011;33502;47.182;27.506;2022-12-05T09:18:45;11.20;;;6.78;;
47737;SDS011;33502;47.182;27.506;2022-12-05T09:21:13;14.95;;;7.07;;
47737;SDS011;33502;47.182;27.506;2022-12-05T09:23:44;8.68;;;6.05;;
47737;SDS011;33502;47.182;27.506;2022-12-05T09:26:11;10.68;;;6.07;;
47737;SDS011;33502;47.182;27.506;2022-12-05T09:28:38;11.98;;;6.05;;
47737;SDS011;33502;47.182;27.506;2022-12-05T09:31:06;8.30;;;5.45;;
47737;SDS011;33502;47.182;27.506;2022-12-05T09:33:36;11.60;;;6.18;;
47737;SDS011;33502;47.182;27.506;2022-12-05T09:36:07;10.98;;;6.43;;
47737;SDS011;33502;47.182;27.506;2022-12-05T09:38:36;10.55;;;6.65;;
47737;SDS011;33502;47.182;27.506;2022-12-05T09:41:45;7.32;;;5.68;;
47737;SDS011;33502;47.182;27.506;2022-12-05T09:46:57;8.57;;;6.38;;
47737;SDS011;33502;47.182;27.506;2022-12-05T09:49:27;11.60;;;6.75;;
47737;SDS011;33502;47.182;27.506;2022-12-05T09:51:54;10.63;;;6.60;;
47737;SDS011;33502;47.182;27.506;2022-12-05T09:54:22;11.32;;;6.93;;
47737;SDS011;33502;47.182;27.506;2022-12-05T09:56:49;11.27;;;6.90;;
47737;SDS011;33502;47.182;27.506;2022-12-05T09:59:17;11.02;;;6.35;;
47737;SDS011;33502;47.182;27.506;2022-12-05T10:10:13;11.48;;;7.90;;
47737;SDS011;33502;47.182;27.506;2022-12-05T10:15:48;10.60;;;6.55;;
47737;SDS011;33502;47.182;27.506;2022-12-05T10:23:59;11.02;;;7.05;;
47737;SDS011;33502;47.182;27.506;2022-12-05T10:26:35;13.95;;;7.40;;
47737;SDS011;33502;47.182;27.506;2022-12-05T10:29:16;11.20;;;7.22;;
47737;SDS011;33502;47.182;27.506;2022-12-05T10:32:24;11.10;;;6.82;;
47737;SDS011;33502;47.182;27.506;2022-12-05T10:35:05;13.18;;;7.32;;
47737;SDS011;33502;47.182;27.506;2022-12-05T10:37:39;10.18;;;6.85;;
47737;SDS011;33502;47.182;27.506;2022-12-05T10:40:11;13.27;;;6.87;;
47737;SDS011;33502;47.182;27.506;2022-12-05T10:42:37;12.20;;;6.25;;
47737;SDS011;33502;47.182;27.506;2022-12-05T10:45:21;12.43;;;6.97;;
47737;SDS011;33502;47.182;27.506;2022-12-05T10:47:52;11.48;;;7.18;;
47737;SDS011;33502;47.182;27.506;2022-12-05T10:50:25;10.93;;;7.30;;
47737;SDS011;33502;47.182;27.506;2022-12-05T10:52:55;15.00;;;8.05;;
47737;SDS011;33502;47.182;27.506;2022-12-05T10:55:22;12.27;;;7.57;;
47737;SDS011;33502;47.182;27.506;2022-12-05T11:00:55;12.63;;;7.65;;
47737;SDS011;33502;47.182;27.506;2022-12-05T11:03:25;13.40;;;7.25;;
47737;SDS011;33502;47.182;27.506;2022-12-05T11:05:55;10.88;;;7.30;;
47737;SDS011;33502;47.182;27.506;2022-12-05T11:08:23;14.30;;;7.88;;
47737;SDS011;33502;47.182;27.506;2022-12-05T11:11:00;10.50;;;7.05;;
47737;SDS011;33502;47.182;27.506;2022-12-05T11:13:28;12.05;;;8.27;;
47737;SDS011;33502;47.182;27.506;2022-12-05T11:15:54;15.23;;;9.15;;
47737;SDS011;33502;47.182;27.506;2022-12-05T11:20:49;12.77;;;8.20;;
47737;SDS011;33502;47.182;27.506;2022-12-05T11:23:26;10.50;;;6.82;;
47737;SDS011;33502;47.182;27.506;2022-12-05T11:25:54;11.70;;;7.43;;
47737;SDS011;33502;47.182;27.506;2022-12-05T11:28:28;14.57;;;10.85;;
47737;SDS011;33502;47.182;27.506;2022-12-05T11:33:36;14.75;;;9.73;;
47737;SDS011;33502;47.182;27.506;2022-12-05T11:36:04;12.57;;;8.52;;
47737;SDS011;33502;47.182;27.506;2022-12-05T11:38:54;10.82;;;7.72;;
47737;SDS011;33502;47.182;27.506;2022-12-05T11:41:35;11.65;;;7.93;;
47737;SDS011;33502;47.182;27.506;2022-12-05T11:50:02;14.70;;;8.82;;
47737;SDS011;33502;47.182;27.506;2022-12-05T11:55:47;15.50;;;9.13;;
47737;SDS011;33502;47.182;27.506;2022-12-05T12:01:11;14.70;;;9.60;;
47737;SDS011;33502;47.182;27.506;2022-12-05T12:06:26;15.30;;;8.70;;
47737;SDS011;33502;47.182;27.506;2022-12-05T12:22:20;12.63;;;8.02;;
47737;SDS011;33502;47.182;27.506;2022-12-05T12:28:03;13.98;;;8.43;;
47737;SDS011;33502;47.182;27.506;2022-12-05T12:36:25;15.95;;;9.15;;
47737;SDS011;33502;47.182;27.506;2022-12-05T12:42:03;12.40;;;7.47;;
47737;SDS011;33502;47.182;27.506;2022-12-05T12:52:57;17.83;;;9.75;;
47737;SDS011;33502;47.182;27.506;2022-12-05T13:01:38;16.73;;;10.43;;
47737;SDS011;33502;47.182;27.506;2022-12-05T13:04:14;15.23;;;10.32;;
47737;SDS011;33502;47.182;27.506;2022-12-05T13:06:48;15.57;;;9.70;;
47737;SDS011;33502;47.182;27.506;2022-12-05T13:11:49;16.17;;;9.88;;
47737;SDS011;33502;47.182;27.506;2022-12-05T13:14:16;15.65;;;9.55;;
47737;SDS011;33502;47.182;27.506;2022-12-05T13:16:46;15.52;;;10.45;;
47737;SDS011;33502;47.182;27.506;2022-12-05T13:19:38;22.08;;;10.68;;
47737;SDS011;33502;47.182;27.506;2022-12-05T13:22:05;18.10;;;10.70;;
47737;SDS011;33502;47.182;27.506;2022-12-05T13:24:33;18.67;;;11.85;;
47737;SDS011;33502;47.182;27.506;2022-12-05T13:27:00;19.10;;;10.80;;
47737;SDS011;33502;47.182;27.506;2022-12-05T13:29:41;14.25;;;8.90;;
47737;SDS011;33502;47.182;27.506;2022-12-05T13:35:10;14.35;;;8.25;;
47737;SDS011;33502;47.182;27.506;2022-12-05T13:38:02;13.40;;;8.93;;
47737;SDS011;33502;47.182;27.506;2022-12-05T13:40:50;13.82;;;8.23;;
47737;SDS011;33502;47.182;27.506;2022-12-05T13:43:43;15.85;;;8.50;;
47737;SDS011;33502;47.182;27.506;2022-12-05T13:46:33;18.45;;;9.93;;
47737;SDS011;33502;47.182;27.506;2022-12-05T13:49:12;13.75;;;8.82;;
47737;SDS011;33502;47.182;27.506;2022-12-05T13:51:43;16.83;;;9.43;;
47737;SDS011;33502;47.182;27.506;2022-12-05T13:57:02;13.68;;;8.43;;
47737;SDS011;33502;47.182;27.506;2022-12-05T14:05:50;16.55;;;8.70;;
47737;SDS011;33502;47.182;27.506;2022-12-05T14:08:47;15.88;;;9.57;;
47737;SDS011;33502;47.182;27.506;2022-12-05T14:16:37;15.18;;;9.93;;
47737;SDS011;33502;47.182;27.506;2022-12-05T14:18:57;12.25;;;7.88;;
47737;SDS011;33502;47.182;27.506;2022-12-05T14:24:18;15.23;;;9.55;;
47737;SDS011;33502;47.182;27.506;2022-12-05T14:29:41;15.57;;;9.60;;
47737;SDS011;33502;47.182;27.506;2022-12-05T14:32:11;17.10;;;9.65;;
47737;SDS011;33502;47.182;27.506;2022-12-05T14:40:23;18.80;;;14.35;;
47737;SDS011;33502;47.182;27.506;2022-12-05T14:42:56;14.60;;;10.57;;
47737;SDS011;33502;47.182;27.506;2022-12-05T14:50:49;15.52;;;10.25;;
47737;SDS011;33502;47.182;27.506;2022-12-05T14:55:56;17.05;;;11.40;;
47737;SDS011;33502;47.182;27.506;2022-12-05T15:03:41;16.48;;;11.43;;
47737;SDS011;33502;47.182;27.506;2022-12-05T15:06:16;15.98;;;10.30;;
47737;SDS011;33502;47.182;27.506;2022-12-05T15:08:44;19.27;;;11.90;;
47737;SDS011;33502;47.182;27.506;2022-12-05T15:11:15;16.10;;;11.48;;
47737;SDS011;33502;47.182;27.506;2022-12-05T15:13:54;16.40;;;10.05;;
47737;SDS011;33502;47.182;27.506;2022-12-05T15:18:58;15.50;;;10.23;;
47737;SDS011;33502;47.182;27.506;2022-12-05T15:21:32;17.98;;;10.65;;
47737;SDS011;33502;47.182;27.506;2022-12-05T15:24:00;21.30;;;11.18;;
47737;SDS011;33502;47.182;27.506;2022-12-05T15:31:31;24.55;;;12.88;;
47737;SDS011;33502;47.182;27.506;2022-12-05T15:34:04;20.27;;;12.43;;
47737;SDS011;33502;47.182;27.506;2022-12-05T15:39:28;20.70;;;12.40;;
47737;SDS011;33502;47.182;27.506;2022-12-05T15:41:55;21.05;;;13.25;;
47737;SDS011;33502;47.182;27.506;2022-12-05T15:44:26;20.52;;;12.63;;
47737;SDS011;33502;47.182;27.506;2022-12-05T15:46:53;19.80;;;12.30;;
47737;SDS011;33502;47.182;27.506;2022-12-05T15:49:24;21.92;;;12.77;;
47737;SDS011;33502;47.182;27.506;2022-12-05T15:51:52;16.27;;;10.55;;
47737;SDS011;33502;47.182;27.506;2022-12-05T15:54:26;16.73;;;10.68;;
47737;SDS011;33502;47.182;27.506;2022-12-05T15:57:09;19.50;;;11.25;;
47737;SDS011;33502;47.182;27.506;2022-12-05T15:59:42;20.13;;;12.43;;
47737;SDS011;33502;47.182;27.506;2022-12-05T16:02:14;21.27;;;11.80;;
47737;SDS011;33502;47.182;27.506;2022-12-05T16:04:45;17.50;;;11.93;;
47737;SDS011;33502;47.182;27.506;2022-12-05T16:07:21;20.05;;;12.48;;
47737;SDS011;33502;47.182;27.506;2022-12-05T16:09:49;22.95;;;13.93;;
47737;SDS011;33502;47.182;27.506;2022-12-05T16:15:10;16.55;;;11.10;;
47737;SDS011;33502;47.182;27.506;2022-12-05T16:17:51;21.02;;;12.70;;
47737;SDS011;33502;47.182;27.506;2022-12-05T16:20:27;20.13;;;12.25;;
47737;SDS011;33502;47.182;27.506;2022-12-05T16:22:55;24.27;;;14.05;;
47737;SDS011;33502;47.182;27.506;2022-12-05T16:25:25;18.08;;;11.07;;
47737;SDS011;33502;47.182;27.506;2022-12-05T16:27:59;20.30;;;12.30;;
47737;SDS011;33502;47.182;27.506;2022-12-05T16:30:29;22.33;;;13.40;;
47737;SDS011;33502;47.182;27.506;2022-12-05T16:33:05;21.58;;;12.98;;
47737;SDS011;33502;47.182;27.506;2022-12-05T16:35:43;22.03;;;13.30;;
47737;SDS011;33502;47.182;27.506;2022-12-05T16:38:16;22.48;;;13.82;;
47737;SDS011;33502;47.182;27.506;2022-12-05T16:43:58;23.20;;;14.07;;
47737;SDS011;33502;47.182;27.506;2022-12-05T16:48:40;24.45;;;14.23;;
47737;SDS011;33502;47.182;27.506;2022-12-05T16:53:38;20.80;;;12.90;;
47737;SDS011;33502;47.182;27.506;2022-12-05T16:56:13;21.80;;;13.00;;
47737;SDS011;33502;47.182;27.506;2022-12-05T16:58:44;20.80;;;12.73;;
47737;SDS011;33502;47.182;27.506;2022-12-05T17:01:17;20.42;;;12.98;;
47737;SDS011;33502;47.182;27.506;2022-12-05T17:03:45;21.45;;;12.77;;
47737;SDS011;33502;47.182;27.506;2022-12-05T17:06:11;17.15;;;11.70;;
47737;SDS011;33502;47.182;27.506;2022-12-05T17:08:39;17.23;;;11.45;;
47737;SDS011;33502;47.182;27.506;2022-12-05T17:11:08;20.98;;;11.93;;
47737;SDS011;33502;47.182;27.506;2022-12-05T17:13:39;20.95;;;12.55;;
47737;SDS011;33502;47.182;27.506;2022-12-05T17:16:05;20.55;;;10.77;;
47737;SDS011;33502;47.182;27.506;2022-12-05T17:18:31;13.07;;;9.38;;
47737;SDS011;33502;47.182;27.506;2022-12-05T17:20:58;17.58;;;9.82;;
47737;SDS011;33502;47.182;27.506;2022-12-05T17:23:26;17.05;;;11.15;;
47737;SDS011;33502;47.182;27.506;2022-12-05T17:25:55;18.10;;;11.43;;
47737;SDS011;33502;47.182;27.506;2022-12-05T17:28:22;18.95;;;11.95;;
47737;SDS011;33502;47.182;27.506;2022-12-05T17:30:49;16.42;;;9.82;;
47737;SDS011;33502;47.182;27.506;2022-12-05T17:33:16;19.02;;;11.02;;
47737;SDS011;33502;47.182;27.506;2022-12-05T17:35:43;18.30;;;10.43;;
47737;SDS011;33502;47.182;27.506;2022-12-05T17:38:10;18.73;;;11.38;;
47737;SDS011;33502;47.182;27.506;2022-12-05T17:40:36;19.08;;;10.25;;
47737;SDS011;33502;47.182;27.506;2022-12-05T17:43:03;15.50;;;9.32;;
47737;SDS011;33502;47.182;27.506;2022-12-05T17:45:29;10.90;;;6.65;;
47737;SDS011;33502;47.182;27.506;2022-12-05T17:47:56;18.38;;;11.05;;
47737;SDS011;33502;47.182;27.506;2022-12-05T17:50:22;20.45;;;13.18;;
47737;SDS011;33502;47.182;27.506;2022-12-05T17:52:52;17.35;;;12.60;;
47737;SDS011;33502;47.182;27.506;2022-12-05T17:55:24;21.35;;;12.10;;
47737;SDS011;33502;47.182;27.506;2022-12-05T17:57:52;17.58;;;10.60;;
47737;SDS011;33502;47.182;27.506;2022-12-05T18:00:19;19.52;;;11.95;;